createdAt,value
2019-02-25T00:02:28.189Z,19.80
2019-02-25T00:05:12.427Z,19.80
2019-02-25T00:07:42.895Z,19.80
2019-02-25T00:10:13.349Z,19.80
2019-02-25T00:12:50.745Z,19.80
2019-02-25T00:15:21.205Z,19.80
2019-02-25T00:17:51.602Z,19.80
2019-02-25T00:20:29.261Z,19.80
2019-02-25T00:22:59.691Z,19.80
2019-02-25T00:25:30.077Z,19.80
2019-02-25T00:28:06.861Z,19.80
2019-02-25T00:30:43.986Z,19.80
2019-02-25T00:33:21.450Z,19.80
2019-02-25T00:35:51.801Z,19.80
2019-02-25T00:38:22.278Z,19.80
2019-02-25T00:40:59.630Z,19.80
2019-02-25T00:43:30.005Z,19.80
2019-02-25T00:46:00.469Z,19.80
2019-02-25T00:48:37.793Z,19.80
2019-02-25T00:51:08.141Z,19.80
2019-02-25T00:53:38.513Z,19.80
2019-02-25T00:56:15.298Z,19.80
2019-02-25T00:58:45.756Z,19.80
2019-02-25T01:01:16.125Z,19.80
2019-02-25T01:03:48.045Z,19.80
2019-02-25T01:06:18.661Z,19.80
2019-02-25T01:08:49.282Z,19.80
2019-02-25T01:11:19.671Z,19.80
2019-02-25T01:13:50.066Z,19.80
2019-02-25T01:16:20.565Z,19.80
2019-02-25T01:18:52.422Z,19.80
2019-02-25T01:21:22.964Z,19.80
2019-02-25T01:23:53.572Z,19.80
2019-02-25T01:27:17.850Z,19.80
2019-02-25T01:29:48.279Z,19.80
2019-02-25T01:32:18.743Z,19.80
2019-02-25T01:34:49.230Z,19.80
2019-02-25T01:37:19.690Z,19.70
2019-02-25T01:39:50.149Z,19.80
2019-02-25T01:42:20.556Z,19.70
2019-02-25T01:44:50.948Z,19.80
2019-02-25T01:47:21.382Z,19.80
2019-02-25T01:49:51.875Z,19.80
2019-02-25T01:52:22.262Z,19.70
2019-02-25T01:54:52.777Z,19.70
2019-02-25T01:57:23.247Z,19.80
2019-02-25T01:59:53.679Z,19.70
2019-02-25T02:02:24.045Z,19.70
2019-02-25T02:04:54.543Z,19.70
2019-02-25T02:07:24.997Z,19.70
2019-02-25T02:09:55.629Z,19.70
2019-02-25T02:12:26.201Z,19.70
2019-02-25T02:14:56.670Z,19.70
2019-02-25T02:17:27.099Z,19.70
2019-02-25T02:19:57.482Z,19.70
2019-02-25T02:22:27.949Z,19.70
2019-02-25T02:24:58.381Z,19.70
2019-02-25T02:27:29.122Z,19.70
2019-02-25T02:29:59.483Z,19.70
2019-02-25T02:32:29.943Z,19.70
2019-02-25T02:35:00.536Z,19.60
2019-02-25T02:37:30.966Z,19.60
2019-02-25T02:40:01.430Z,19.70
2019-02-25T02:42:31.805Z,19.60
2019-02-25T02:45:02.207Z,19.70
2019-02-25T02:47:38.592Z,19.60
2019-02-25T02:50:14.963Z,19.60
2019-02-25T02:52:45.694Z,19.60
2019-02-25T02:55:16.078Z,19.60
2019-02-25T02:57:46.668Z,19.60
2019-02-25T03:00:18.655Z,19.60
2019-02-25T03:02:49.655Z,19.60
2019-02-25T03:05:20.439Z,19.60
2019-02-25T03:07:50.820Z,19.60
2019-02-25T03:10:21.618Z,19.60
2019-02-25T03:12:52.027Z,19.60
2019-02-25T03:15:25.697Z,19.60
2019-02-25T03:17:56.120Z,19.60
2019-02-25T03:20:26.589Z,19.50
2019-02-25T03:22:57.377Z,19.50
2019-02-25T03:25:27.761Z,19.50
2019-02-25T03:27:58.261Z,19.50
2019-02-25T03:30:28.704Z,19.50
2019-02-25T03:32:59.055Z,19.50
2019-02-25T03:35:29.491Z,19.50
2019-02-25T03:37:59.956Z,19.50
2019-02-25T03:40:30.335Z,19.50
2019-02-25T03:43:00.775Z,19.50
2019-02-25T03:45:31.266Z,19.50
2019-02-25T03:48:01.756Z,19.50
2019-02-25T03:50:32.217Z,19.50
2019-02-25T03:53:02.580Z,19.40
2019-02-25T03:55:32.993Z,19.40
2019-02-25T03:58:03.445Z,19.40
2019-02-25T04:00:33.926Z,19.50
2019-02-25T04:03:04.369Z,19.50
2019-02-25T04:05:34.871Z,19.50
2019-02-25T04:08:05.455Z,19.40
2019-02-25T04:10:35.893Z,19.40
2019-02-25T04:13:06.546Z,19.40
2019-02-25T04:15:38.360Z,19.40
2019-02-25T04:18:08.842Z,19.40
2019-02-25T04:20:39.346Z,19.40
2019-02-25T04:23:11.317Z,19.40
2019-02-25T04:25:41.746Z,19.40
2019-02-25T04:28:12.092Z,19.40
2019-02-25T04:30:42.545Z,19.40
2019-02-25T04:33:13.012Z,19.40
2019-02-25T04:35:43.449Z,19.30
2019-02-25T04:38:13.856Z,19.30
2019-02-25T04:40:44.433Z,19.30
2019-02-25T04:43:14.805Z,19.30
2019-02-25T04:45:45.222Z,19.30
2019-02-25T04:48:15.693Z,19.30
2019-02-25T04:50:46.106Z,19.30
2019-02-25T04:53:16.507Z,19.30
2019-02-25T04:55:47.002Z,19.30
2019-02-25T04:58:17.548Z,19.30
2019-02-25T05:00:48.009Z,19.30
2019-02-25T05:03:18.355Z,19.30
2019-02-25T05:05:50.672Z,19.30
2019-02-25T05:08:21.154Z,19.30
2019-02-25T05:10:51.724Z,19.30
2019-02-25T05:13:22.157Z,19.30
2019-02-25T05:15:54.621Z,19.30
2019-02-25T05:18:25.173Z,19.20
2019-02-25T05:20:55.539Z,19.20
2019-02-25T05:23:26.018Z,19.20
2019-02-25T05:25:56.483Z,19.20
2019-02-25T05:28:26.858Z,19.20
2019-02-25T05:30:57.259Z,19.20
2019-02-25T05:33:27.704Z,19.20
2019-02-25T05:35:58.339Z,19.20
2019-02-25T05:38:28.709Z,19.20
2019-02-25T05:40:59.156Z,19.20
2019-02-25T05:43:29.519Z,19.10
2019-02-25T05:45:59.928Z,19.10
2019-02-25T05:48:30.404Z,19.20
2019-02-25T05:51:00.836Z,19.10
2019-02-25T05:53:33.341Z,19.10
2019-02-25T05:56:03.811Z,19.10
2019-02-25T05:58:34.288Z,19.10
2019-02-25T06:01:04.690Z,19.10
2019-02-25T06:03:35.139Z,19.10
2019-02-25T06:06:05.614Z,19.10
2019-02-25T06:08:36.130Z,19.10
2019-02-25T06:11:06.637Z,19.10
2019-02-25T06:13:37.318Z,19.10
2019-02-25T06:16:07.980Z,19.10
2019-02-25T06:18:38.364Z,19.10
2019-02-25T06:21:08.722Z,19.10
2019-02-25T06:23:39.220Z,19.00
2019-02-25T06:26:09.748Z,19.10
2019-02-25T06:28:40.147Z,19.00
2019-02-25T06:31:10.575Z,19.00
2019-02-25T06:33:41.294Z,19.00
2019-02-25T06:36:11.751Z,19.00
2019-02-25T06:38:42.180Z,19.00
2019-02-25T06:41:12.607Z,19.00
2019-02-25T06:43:42.960Z,19.00
2019-02-25T06:46:13.384Z,19.00
2019-02-25T06:48:43.858Z,19.00
2019-02-25T06:51:14.333Z,19.00
2019-02-25T06:53:44.808Z,19.00
2019-02-25T06:56:15.165Z,19.00
2019-02-25T06:58:45.632Z,18.90
2019-02-25T07:01:16.017Z,18.90
2019-02-25T07:03:47.848Z,18.90
2019-02-25T07:06:19.692Z,18.90
2019-02-25T07:08:51.442Z,18.90
2019-02-25T07:11:35.065Z,18.90
2019-02-25T07:14:12.435Z,18.90
2019-02-25T07:16:44.466Z,18.90
2019-02-25T07:19:31.895Z,18.90
2019-02-25T07:22:06.524Z,18.90
2019-02-25T07:24:52.583Z,18.90
2019-02-25T07:27:20.329Z,18.90
2019-02-25T07:29:55.220Z,18.90
2019-02-25T07:32:43.040Z,18.80
2019-02-25T07:35:17.783Z,18.80
2019-02-25T07:37:51.574Z,18.80
2019-02-25T07:40:28.379Z,18.80
2019-02-25T07:43:15.954Z,18.80
2019-02-25T07:45:53.490Z,18.80
2019-02-25T07:48:31.076Z,18.80
2019-02-25T07:51:17.929Z,18.80
2019-02-25T07:54:06.763Z,18.80
2019-02-25T07:56:55.219Z,18.80
2019-02-25T07:59:33.149Z,18.80
2019-02-25T08:02:10.990Z,18.80
2019-02-25T08:05:00.804Z,18.80
2019-02-25T08:07:38.608Z,18.80
2019-02-25T08:10:12.137Z,18.70
2019-02-25T08:12:43.865Z,18.80
2019-02-25T08:15:15.633Z,18.80
2019-02-25T08:18:03.615Z,18.80
2019-02-25T08:20:35.430Z,18.80
2019-02-25T08:23:09.771Z,18.80
2019-02-25T08:25:53.887Z,18.70
2019-02-25T08:28:34.474Z,18.70
2019-02-25T08:31:06.248Z,18.70
2019-02-25T08:33:38.084Z,18.70
2019-02-25T08:36:27.021Z,18.70
2019-02-25T08:39:04.530Z,18.80
2019-02-25T08:41:41.936Z,18.70
2019-02-25T08:44:28.964Z,18.70
2019-02-25T08:47:16.859Z,18.70
2019-02-25T08:49:48.570Z,18.70
2019-02-25T08:52:18.959Z,18.70
2019-02-25T08:54:49.433Z,18.70
2019-02-25T08:57:19.865Z,18.70
2019-02-25T08:59:50.321Z,18.70
2019-02-25T09:02:20.898Z,18.70
2019-02-25T09:04:51.471Z,18.70
2019-02-25T09:07:21.914Z,18.70
2019-02-25T09:09:52.279Z,18.60
2019-02-25T09:12:22.931Z,18.60
2019-02-25T09:14:53.397Z,18.70
2019-02-25T09:17:23.844Z,18.60
2019-02-25T09:19:54.391Z,18.60
2019-02-25T09:22:24.762Z,18.60
2019-02-25T09:24:55.238Z,18.60
2019-02-25T09:27:26.162Z,18.60
2019-02-25T09:29:56.669Z,18.60
2019-02-25T09:32:27.172Z,18.60
2019-02-25T09:34:57.553Z,18.60
2019-02-25T09:37:27.929Z,18.60
2019-02-25T09:39:58.435Z,18.60
2019-02-25T09:42:28.921Z,18.60
2019-02-25T09:44:59.281Z,18.60
2019-02-25T09:47:29.739Z,18.60
2019-02-25T09:50:00.232Z,18.60
2019-02-25T09:52:31.665Z,18.60
2019-02-25T09:55:02.158Z,18.60
2019-02-25T09:57:32.587Z,18.60
2019-02-25T10:00:02.946Z,18.60
2019-02-25T10:02:33.354Z,18.60
2019-02-25T10:05:03.831Z,18.50
2019-02-25T10:07:34.159Z,18.60
2019-02-25T10:10:04.907Z,18.60
2019-02-25T10:12:35.356Z,18.50
2019-02-25T10:15:07.273Z,18.50
2019-02-25T10:17:37.681Z,18.50
2019-02-25T10:20:10.332Z,18.50
2019-02-25T10:22:40.991Z,18.50
2019-02-25T10:25:12.339Z,18.50
2019-02-25T10:27:42.851Z,18.50
2019-02-25T10:30:15.135Z,18.50
2019-02-25T10:32:45.574Z,18.50
2019-02-25T10:35:24.919Z,18.50
2019-02-25T10:37:55.443Z,18.50
2019-02-25T10:40:27.504Z,18.50
2019-02-25T10:42:58.209Z,18.50
2019-02-25T10:45:28.597Z,18.50
2019-02-25T10:47:59.062Z,18.50
2019-02-25T10:50:31.201Z,18.50
2019-02-25T10:53:03.705Z,18.50
2019-02-25T10:55:49.340Z,18.50
2019-02-25T10:58:19.800Z,18.50
2019-02-25T11:00:50.245Z,18.50
2019-02-25T11:03:21.742Z,18.50
2019-02-25T11:05:53.872Z,18.50
2019-02-25T11:08:24.166Z,18.50
2019-02-25T11:10:58.633Z,18.40
2019-02-25T11:13:29.774Z,18.40
2019-02-25T11:16:00.958Z,18.40
2019-02-25T11:18:31.376Z,18.50
2019-02-25T11:21:03.683Z,18.40
2019-02-25T11:23:34.067Z,18.40
2019-02-25T11:26:04.422Z,18.40
2019-02-25T11:28:36.615Z,18.40
2019-02-25T11:31:07.203Z,18.40
2019-02-25T11:33:37.738Z,18.40
2019-02-25T11:36:08.073Z,18.40
2019-02-25T11:38:38.506Z,18.40
2019-02-25T11:41:11.136Z,18.40
2019-02-25T11:43:40.921Z,18.40
2019-02-25T11:46:11.490Z,18.40
2019-02-25T11:48:42.065Z,18.40
2019-02-25T11:51:12.501Z,18.40
2019-02-25T11:53:42.944Z,18.40
2019-02-25T11:56:13.340Z,18.40
2019-02-25T11:58:43.983Z,18.40
2019-02-25T12:01:14.559Z,18.40
2019-02-25T12:03:46.265Z,18.40
2019-02-25T12:06:16.702Z,18.40
2019-02-25T12:08:47.095Z,18.40
2019-02-25T12:11:17.584Z,18.30
2019-02-25T12:13:48.005Z,18.40
2019-02-25T12:16:18.373Z,18.40
2019-02-25T12:18:48.750Z,18.40
2019-02-25T12:21:19.594Z,18.30
2019-02-25T12:23:50.249Z,18.30
2019-02-25T12:26:20.696Z,18.30
2019-02-25T12:28:51.148Z,18.30
2019-02-25T12:31:21.515Z,18.30
2019-02-25T12:33:51.894Z,18.30
2019-02-25T12:36:22.694Z,18.30
2019-02-25T12:38:53.425Z,18.30
2019-02-25T12:41:23.777Z,18.30
2019-02-25T12:43:54.146Z,18.30
2019-02-25T12:46:24.703Z,18.30
2019-02-25T12:48:55.072Z,18.20
2019-02-25T12:51:25.520Z,18.30
2019-02-25T12:53:56.019Z,18.20
2019-02-25T12:56:26.435Z,18.30
2019-02-25T12:58:56.822Z,18.30
2019-02-25T13:01:27.333Z,18.30
2019-02-25T13:03:57.773Z,18.30
2019-02-25T13:06:28.150Z,18.30
2019-02-25T13:08:58.551Z,18.30
2019-02-25T13:11:29.030Z,18.20
2019-02-25T13:13:59.500Z,18.30
2019-02-25T13:16:29.935Z,18.20
2019-02-25T13:19:00.333Z,18.30
2019-02-25T13:21:30.863Z,18.30
2019-02-25T13:24:01.999Z,18.20
2019-02-25T13:26:34.005Z,18.20
2019-02-25T13:29:05.392Z,18.20
2019-02-25T13:31:35.749Z,18.20
2019-02-25T13:34:06.223Z,18.20
2019-02-25T13:36:36.720Z,18.30
2019-02-25T13:39:08.533Z,18.20
2019-02-25T13:41:38.980Z,18.20
2019-02-25T13:44:09.387Z,18.20
2019-02-25T13:46:39.842Z,18.20
2019-02-25T13:49:10.324Z,18.20
2019-02-25T13:51:40.801Z,18.20
2019-02-25T13:54:11.361Z,18.20
2019-02-25T13:56:41.838Z,18.20
2019-02-25T13:59:12.510Z,18.20
2019-02-25T14:01:43.057Z,18.20
2019-02-25T14:04:13.702Z,18.20
2019-02-25T14:06:44.274Z,18.20
2019-02-25T14:09:15.301Z,18.20
2019-02-25T14:11:46.118Z,18.20
2019-02-25T14:14:16.728Z,18.20
2019-02-25T14:16:47.179Z,18.20
2019-02-25T14:19:17.612Z,18.20
2019-02-25T14:21:48.100Z,18.20
2019-02-25T14:24:20.816Z,18.20
2019-02-25T14:26:51.057Z,18.20
2019-02-25T14:29:21.541Z,18.10
2019-02-25T14:31:52.090Z,18.20
2019-02-25T14:34:22.665Z,18.20
2019-02-25T14:36:54.422Z,18.20
2019-02-25T14:39:27.516Z,18.10
2019-02-25T14:41:58.959Z,18.10
2019-02-25T14:44:32.256Z,18.20
2019-02-25T14:47:02.775Z,18.20
2019-02-25T14:49:34.818Z,18.10
2019-02-25T14:52:04.674Z,18.10
2019-02-25T14:54:35.292Z,18.10
2019-02-25T14:57:06.201Z,18.10
2019-02-25T14:59:36.806Z,18.10
2019-02-25T15:02:08.718Z,18.20
2019-02-25T15:04:39.719Z,18.10
2019-02-25T15:07:12.952Z,18.10
2019-02-25T15:09:43.605Z,18.10
2019-02-25T15:12:15.288Z,18.10
2019-02-25T15:14:45.803Z,18.10
2019-02-25T15:17:16.325Z,18.10
2019-02-25T15:19:46.810Z,18.10
2019-02-25T15:22:17.280Z,18.10
2019-02-25T15:24:48.297Z,18.10
2019-02-25T15:27:20.130Z,18.10
2019-02-25T15:29:50.618Z,18.10
2019-02-25T15:32:21.168Z,18.10
2019-02-25T15:34:52.824Z,18.10
2019-02-25T15:37:23.706Z,18.10
2019-02-25T15:39:55.923Z,18.10
2019-02-25T15:42:27.845Z,18.10
2019-02-25T15:44:59.294Z,18.10
2019-02-25T15:47:29.990Z,18.10
2019-02-25T15:50:03.757Z,18.10
2019-02-25T15:52:39.719Z,18.10
2019-02-25T15:55:04.327Z,18.10
2019-02-25T15:57:35.301Z,18.10
2019-02-25T16:00:09.768Z,18.10
2019-02-25T16:02:40.320Z,18.10
2019-02-25T16:05:11.768Z,18.20
2019-02-25T16:07:42.584Z,18.20
2019-02-25T16:10:17.737Z,18.40
2019-02-25T16:12:48.917Z,18.50
2019-02-25T16:15:21.467Z,18.70
2019-02-25T16:17:52.421Z,18.80
2019-02-25T16:20:24.294Z,18.90
2019-02-25T16:22:56.497Z,19.70
2019-02-25T16:25:29.401Z,20.30
2019-02-25T16:28:01.139Z,20.50
2019-02-25T16:30:31.585Z,20.90
2019-02-25T16:33:04.853Z,21.40
2019-02-25T16:35:35.315Z,21.70
2019-02-25T16:38:07.370Z,21.80
2019-02-25T16:40:40.047Z,21.90
2019-02-25T16:43:12.668Z,21.90
2019-02-25T16:45:44.518Z,21.90
2019-02-25T16:48:14.727Z,21.90
2019-02-25T16:50:46.407Z,22.00
2019-02-25T16:53:18.330Z,22.00
2019-02-25T16:55:49.821Z,22.00
2019-02-25T16:58:21.360Z,22.00
2019-02-25T17:00:52.030Z,22.00
2019-02-25T17:03:24.349Z,22.00
2019-02-25T17:05:55.765Z,22.00
2019-02-25T17:08:28.114Z,22.00
2019-02-25T17:11:00.000Z,22.10
2019-02-25T17:13:32.491Z,22.20
2019-02-25T17:16:14.220Z,22.40
2019-02-25T17:18:37.520Z,22.70
2019-02-25T17:21:09.317Z,22.90
2019-02-25T17:23:39.755Z,23.00
2019-02-25T17:26:12.140Z,23.10
2019-02-25T17:28:42.250Z,23.20
2019-02-25T17:31:14.323Z,23.30
2019-02-25T17:33:44.644Z,23.30
2019-02-25T17:36:16.392Z,23.30
2019-02-25T17:38:47.556Z,23.30
2019-02-25T17:41:18.982Z,23.30
2019-02-25T17:43:49.648Z,23.30
2019-02-25T17:46:20.136Z,23.40
2019-02-25T17:48:50.638Z,23.30
2019-02-25T17:51:21.379Z,23.30
2019-02-25T17:53:54.823Z,23.40
2019-02-25T17:56:26.985Z,23.40
2019-02-25T17:58:59.338Z,23.50
2019-02-25T18:01:29.360Z,23.50
2019-02-25T18:04:02.035Z,23.50
2019-02-25T18:06:33.956Z,23.50
2019-02-25T18:09:05.460Z,23.60
2019-02-25T18:11:38.936Z,23.60
2019-02-25T18:16:52.479Z,23.50
2019-02-25T18:19:25.347Z,23.60
2019-02-25T18:21:58.748Z,23.70
2019-02-25T18:24:28.594Z,23.70
2019-02-25T18:26:59.409Z,23.70
2019-02-25T18:29:30.214Z,23.80
2019-02-25T18:32:01.736Z,23.80
2019-02-25T18:34:34.410Z,23.80
2019-02-25T18:37:07.040Z,23.80
2019-02-25T18:39:38.064Z,23.90
2019-02-25T18:42:11.760Z,23.90
2019-02-25T18:44:44.451Z,23.90
2019-02-25T18:47:16.182Z,23.90
2019-02-25T18:49:46.925Z,23.90
2019-02-25T18:52:19.042Z,23.90
2019-02-25T18:54:49.570Z,23.90
2019-02-25T18:57:21.032Z,23.90
2019-02-25T18:59:52.308Z,23.90
2019-02-25T19:02:23.136Z,23.90
2019-02-25T19:04:53.500Z,24.00
2019-02-25T19:07:25.621Z,23.90
2019-02-25T19:09:59.521Z,24.00
2019-02-25T19:12:29.995Z,24.00
2019-02-25T19:15:02.487Z,23.80
2019-02-25T19:17:32.361Z,23.60
2019-02-25T19:20:02.779Z,23.50
2019-02-25T19:22:35.127Z,23.40
2019-02-25T19:25:14.940Z,23.40
2019-02-25T19:27:42.000Z,23.30
2019-02-25T19:30:17.413Z,23.20
2019-02-25T19:32:47.389Z,23.20
2019-02-25T19:35:18.332Z,23.10
2019-02-25T19:37:48.815Z,23.10
2019-02-25T19:40:24.402Z,23.00
2019-02-25T19:42:56.373Z,23.00
2019-02-25T19:45:26.072Z,23.00
2019-02-25T19:47:58.380Z,23.00
2019-02-25T19:50:29.881Z,22.90
2019-02-25T19:53:04.608Z,22.90
2019-02-25T19:55:33.938Z,22.90
2019-02-25T19:58:04.640Z,22.80
2019-02-25T20:00:35.909Z,22.80
2019-02-25T20:03:06.708Z,22.80
2019-02-25T20:05:41.215Z,22.80
2019-02-25T20:08:08.890Z,22.80
2019-02-25T20:10:39.393Z,22.80
2019-02-25T20:13:12.951Z,22.70
2019-02-25T20:15:44.478Z,22.70
2019-02-25T20:18:16.187Z,22.80
2019-02-25T20:20:48.942Z,22.70
2019-02-25T20:23:20.259Z,22.70
2019-02-25T20:25:53.421Z,22.70
2019-02-25T20:28:25.093Z,22.70
2019-02-25T20:30:56.127Z,22.80
2019-02-25T20:33:30.406Z,22.80
2019-02-25T20:36:00.555Z,22.90
2019-02-25T20:38:32.651Z,23.30
2019-02-25T20:41:02.662Z,23.50
2019-02-25T20:43:33.205Z,23.60
2019-02-25T20:46:05.923Z,23.70
2019-02-25T20:48:35.540Z,23.80
2019-02-25T20:51:07.328Z,23.90
2019-02-25T20:53:38.242Z,23.90
2019-02-25T20:56:10.449Z,24.00
2019-02-25T20:58:42.493Z,24.20
2019-02-25T21:01:13.702Z,24.30
2019-02-25T21:03:48.592Z,24.40
2019-02-25T21:06:21.160Z,24.30
2019-02-25T21:08:51.656Z,24.30
2019-02-25T21:11:22.092Z,24.30
2019-02-25T21:13:52.636Z,24.30
2019-02-25T21:16:26.130Z,24.30
2019-02-25T21:18:57.673Z,24.30
2019-02-25T21:21:32.432Z,24.30
2019-02-25T21:24:04.184Z,24.20
2019-02-25T21:26:38.589Z,24.20
2019-02-25T21:29:09.689Z,24.20
2019-02-25T21:31:45.757Z,24.20
2019-02-25T21:34:20.544Z,24.30
2019-02-25T21:36:47.807Z,24.20
2019-02-25T21:39:21.306Z,24.30
2019-02-25T21:41:51.930Z,24.30
2019-02-25T21:44:24.201Z,24.30
2019-02-25T21:46:56.122Z,24.30
2019-02-25T21:49:27.148Z,24.40
2019-02-25T21:52:00.343Z,24.40
2019-02-25T21:54:30.205Z,24.40
2019-02-25T21:57:01.190Z,24.30
2019-02-25T21:59:34.374Z,24.30
2019-02-25T22:02:04.641Z,24.30
2019-02-25T22:04:38.461Z,24.30
2019-02-25T22:07:06.997Z,24.30
2019-02-25T22:09:41.321Z,24.30
2019-02-25T22:12:09.206Z,24.30
2019-02-25T22:14:41.209Z,24.30
2019-02-25T22:17:12.968Z,24.40
2019-02-25T22:19:43.732Z,24.40
2019-02-25T22:22:15.269Z,24.40
2019-02-25T22:24:45.871Z,24.40
2019-02-25T22:27:18.310Z,24.30
2019-02-25T22:29:49.727Z,24.30
2019-02-25T22:32:21.541Z,24.30
2019-02-25T22:34:52.026Z,24.30
2019-02-25T22:37:24.972Z,24.30
2019-02-25T22:39:55.028Z,24.30
2019-02-25T22:42:26.859Z,24.40
2019-02-25T22:44:57.296Z,24.40
2019-02-25T22:47:29.207Z,24.40
2019-02-25T22:49:59.729Z,24.40
2019-02-25T22:52:31.507Z,24.50
2019-02-25T22:55:01.998Z,24.60
2019-02-25T22:57:32.661Z,24.60
2019-02-25T23:00:05.708Z,24.60
2019-02-25T23:02:35.053Z,24.60
2019-02-25T23:05:08.148Z,24.60
2019-02-25T23:07:39.135Z,24.70
2019-02-25T23:10:12.872Z,24.80
2019-02-25T23:12:43.365Z,24.80
2019-02-25T23:15:14.114Z,24.90
2019-02-25T23:17:46.137Z,24.90
2019-02-25T23:20:16.415Z,24.90
2019-02-25T23:22:46.844Z,24.90
2019-02-25T23:25:17.192Z,25.00
2019-02-25T23:27:47.596Z,24.90
2019-02-25T23:30:18.226Z,25.00
2019-02-25T23:32:49.106Z,25.10
2019-02-25T23:35:20.851Z,25.00
2019-02-25T23:37:54.421Z,25.10
2019-02-25T23:40:24.764Z,25.20
2019-02-25T23:42:56.567Z,25.60
2019-02-25T23:45:27.103Z,25.40
2019-02-25T23:47:59.717Z,25.30
2019-02-25T23:50:31.868Z,25.30
2019-02-25T23:53:02.574Z,25.20
2019-02-25T23:55:33.193Z,25.20
2019-02-25T23:58:07.860Z,25.30
